Mc Cook Ben Nelson Regional Airport
KMCK : now visible

Airfield :











YOU CAN JOIN US ON...

 
LOGIN :

Register | Disclaimer

   EN    FR    IT 

 









Legend :    VFR   Marginal VFR   IFR   Intensive IFR   Very Intensive IFR
Visi :
Ceiling :
>= 8 km
>= 3000ft
5 to 8 km
1000 to 3000 ft
1500m to 5 km
500 to 1000 ft
800 to 1500m
200 to 500 ft
< 800m
< 200 ft
Symbols :   Thunderstorms  Fog  Heavy snow  Heavy precipitations  Wind > 20 kt







- Airport Elevation : 2583 ft


KMCK - Mc Cook Ben Nelson Regional

CURRENT METAR :
  • 160653Z AUTO 18011KT 10SM CLR 23/13 A2998 RMK AO2 SLP120 T02330133 $

EXPIRED METARs :
  • 160553Z AUTO 17010KT 10SM CLR 23/13 A2998 RMK AO2 SLP123 T02330133 10317 20228 403610117 50000 $
  • 160453Z AUTO 18010KT 10SM CLR 23/13 A2999 RMK AO2 SLP128 T02330133 $
  • 160353Z AUTO 17009KT 10SM CLR 23/13 A2999 RMK AO2 SLP131 T02330133 $

TAF KMCK
Valid from the 16 at 06:00 until the 17 at 06:00 UTC


160558Z 1606/1706 17010KT P6SM BKN200
FM160800 18009KT P6SM BKN200 WS020/21040KT
FM161300 18008KT P6SM BKN180
FM161600 19016G23KT P6SM BKN150
FM170200 16012KT P6SM BKN080
No reported NOTAMs for that airfield.



MET'MAP, your aeronautical weather chart ! - Copyright ORBIFLY December 2007 - Disclaimer

ORBIFLY MET'MAP TEAM :

Programming & Development : Alexandra Zaïnal
Concept & Development : Baudouin d'Aumeries
Co-Development & Prog : Marc-Olivier Méhu
Technical & hardware support : Manuel Goepfert

Contact : metmap@orbifly.com




SOURCES & CREDITS :

   NOAA       Earth
Advisory